createdAt,value
2023-03-29T00:01:00.764Z,2.96
2023-03-29T00:03:47.756Z,2.85
2023-03-29T00:06:35.257Z,2.74
2023-03-29T00:09:21.633Z,2.72
2023-03-29T00:12:08.534Z,2.80
2023-03-29T00:14:56.545Z,2.63
2023-03-29T00:17:43.201Z,2.49
2023-03-29T00:20:30.058Z,2.44
2023-03-29T00:23:18.361Z,2.34
2023-03-29T00:26:07.811Z,2.34
2023-03-29T00:28:54.763Z,2.28
2023-03-29T00:31:44.539Z,2.32
2023-03-29T00:34:31.914Z,2.39
2023-03-29T00:37:18.857Z,2.46
2023-03-29T00:40:09.689Z,2.29
2023-03-29T00:42:58.210Z,2.38
2023-03-29T00:45:44.881Z,2.40
2023-03-29T00:48:33.101Z,2.43
2023-03-29T00:51:22.009Z,2.37
2023-03-29T00:54:14.939Z,2.27
2023-03-29T00:57:04.140Z,2.35
2023-03-29T00:59:53.065Z,2.28
2023-03-29T01:02:43.504Z,2.37
2023-03-29T01:05:34.157Z,2.47
2023-03-29T01:08:25.823Z,2.44
2023-03-29T01:11:18.247Z,2.54
2023-03-29T01:14:08.454Z,2.61
2023-03-29T01:16:55.782Z,2.80
2023-03-29T01:19:47.530Z,2.85
2023-03-29T01:22:48.029Z,3.02
2023-03-29T01:25:46.194Z,3.30
2023-03-29T01:28:38.255Z,3.39
2023-03-29T01:31:28.793Z,3.29
2023-03-29T01:34:25.631Z,3.67
2023-03-29T01:37:19.244Z,3.49
2023-03-29T01:40:07.097Z,3.90
2023-03-29T01:43:00.123Z,4.07
2023-03-29T01:45:51.283Z,4.19
2023-03-29T01:48:47.657Z,3.68
2023-03-29T01:51:40.550Z,4.20
2023-03-29T01:54:32.439Z,4.21
2023-03-29T01:57:21.766Z,4.24
2023-03-29T02:00:15.408Z,4.37
2023-03-29T02:03:07.759Z,4.37
2023-03-29T02:05:56.452Z,4.35
2023-03-29T02:08:48.806Z,4.29
2023-03-29T02:11:37.208Z,4.21
2023-03-29T02:14:24.860Z,4.05
2023-03-29T02:17:18.378Z,3.95
2023-03-29T02:20:14.768Z,3.89
2023-03-29T02:23:05.717Z,3.76
2023-03-29T02:25:54.576Z,3.72
2023-03-29T02:28:43.007Z,3.69
2023-03-29T02:31:34.212Z,3.00
2023-03-29T02:34:26.832Z,3.32
2023-03-29T02:37:18.921Z,3.47
2023-03-29T02:40:12.654Z,3.46
2023-03-29T02:43:02.655Z,3.49
2023-03-29T02:45:51.628Z,3.30
2023-03-29T02:48:39.719Z,3.32
2023-03-29T02:51:32.132Z,3.39
2023-03-29T02:54:23.240Z,3.43
2023-03-29T02:57:11.365Z,3.39
2023-03-29T02:59:59.830Z,3.25
2023-03-29T03:02:46.692Z,3.34
2023-03-29T03:05:33.787Z,3.46
2023-03-29T03:08:20.745Z,3.36
2023-03-29T03:11:09.483Z,3.28
2023-03-29T03:13:56.474Z,3.26
2023-03-29T03:16:43.197Z,3.26
2023-03-29T03:19:30.279Z,3.22
2023-03-29T03:22:17.626Z,3.14
2023-03-29T03:25:04.789Z,3.16
2023-03-29T03:27:53.687Z,3.13
2023-03-29T03:30:44.198Z,3.12
2023-03-29T03:33:37.166Z,3.13
2023-03-29T03:36:47.330Z,3.12
2023-03-29T03:39:34.275Z,3.15
2023-03-29T03:42:23.260Z,3.07
2023-03-29T03:45:12.366Z,2.96
2023-03-29T03:48:21.062Z,2.97
2023-03-29T03:51:33.938Z,2.92
2023-03-29T03:54:20.744Z,2.90
2023-03-29T03:57:26.068Z,2.88
2023-03-29T04:00:20.461Z,2.89
2023-03-29T04:03:20.700Z,2.97
2023-03-29T04:06:07.846Z,2.95
2023-03-29T04:09:14.449Z,3.11
2023-03-29T04:12:04.916Z,3.09
2023-03-29T04:14:54.532Z,3.03
2023-03-29T04:17:44.124Z,3.16
2023-03-29T04:20:51.681Z,3.17
2023-03-29T04:23:43.090Z,3.31
2023-03-29T04:26:29.946Z,3.38
2023-03-29T04:29:29.744Z,3.45
2023-03-29T04:32:29.897Z,3.57
2023-03-29T04:35:22.605Z,3.74
2023-03-29T04:38:11.601Z,3.72
2023-03-29T04:40:59.361Z,3.79
2023-03-29T04:44:14.337Z,3.97
2023-03-29T04:47:00.933Z,3.88
2023-03-29T04:50:10.306Z,4.19
2023-03-29T04:53:03.636Z,4.24
2023-03-29T04:55:50.333Z,4.26
2023-03-29T04:58:47.673Z,4.21
2023-03-29T05:01:35.211Z,4.38
2023-03-29T05:04:21.773Z,4.38
2023-03-29T05:07:21.980Z,4.50
2023-03-29T05:10:11.661Z,4.56
2023-03-29T05:12:58.396Z,4.47
2023-03-29T05:15:46.072Z,4.47
2023-03-29T05:18:32.947Z,4.48
2023-03-29T05:21:20.693Z,4.66
2023-03-29T05:24:07.533Z,4.72
2023-03-29T05:27:11.846Z,4.74
2023-03-29T05:29:59.478Z,4.73
2023-03-29T05:32:51.734Z,4.75
2023-03-29T05:35:43.778Z,4.74
2023-03-29T05:38:32.900Z,4.79
2023-03-29T05:41:20.239Z,4.87
2023-03-29T05:44:27.159Z,5.08
2023-03-29T05:47:20.281Z,4.92
2023-03-29T05:50:09.861Z,5.08
2023-03-29T05:52:56.921Z,5.20
2023-03-29T05:55:43.832Z,5.22
2023-03-29T05:58:33.358Z,5.23
2023-03-29T06:01:22.676Z,5.26
2023-03-29T06:04:22.230Z,5.27
2023-03-29T06:07:19.548Z,5.40
2023-03-29T06:10:25.990Z,5.52
2023-03-29T06:13:22.442Z,5.54
2023-03-29T06:16:10.502Z,5.62
2023-03-29T06:18:58.368Z,5.78
2023-03-29T06:21:46.034Z,5.86
2023-03-29T06:24:36.673Z,5.93
2023-03-29T06:27:29.942Z,5.97
2023-03-29T06:30:19.039Z,6.09
2023-03-29T06:33:10.442Z,6.18
2023-03-29T06:36:12.041Z,6.28
2023-03-29T06:38:58.729Z,6.46
2023-03-29T06:42:19.992Z,6.46
2023-03-29T06:45:29.248Z,6.48
2023-03-29T06:48:17.434Z,6.67
2023-03-29T06:51:04.189Z,6.82
2023-03-29T06:53:52.581Z,6.83
2023-03-29T06:56:40.433Z,7.05
2023-03-29T06:59:32.711Z,6.83
2023-03-29T07:02:31.886Z,7.06
2023-03-29T07:05:28.362Z,6.93
2023-03-29T07:08:16.572Z,7.11
2023-03-29T07:11:23.554Z,7.22
2023-03-29T07:14:17.773Z,7.33
2023-03-29T07:17:05.911Z,7.33
2023-03-29T07:19:54.339Z,7.49
2023-03-29T07:23:13.490Z,7.75
2023-03-29T07:26:00.402Z,7.83
2023-03-29T07:28:48.776Z,7.89
2023-03-29T07:31:38.676Z,7.97
2023-03-29T07:34:45.243Z,7.88
2023-03-29T07:37:39.979Z,8.12
2023-03-29T07:40:28.276Z,8.29
2023-03-29T07:43:18.396Z,8.50
2023-03-29T07:46:10.188Z,8.41
2023-03-29T07:48:58.114Z,8.55
2023-03-29T07:51:45.092Z,8.62
2023-03-29T07:54:34.575Z,8.82
2023-03-29T07:57:44.669Z,8.61
2023-03-29T08:00:32.737Z,8.54
2023-03-29T08:03:43.510Z,9.01
2023-03-29T08:06:31.273Z,9.08
2023-03-29T08:09:17.985Z,8.90
2023-03-29T08:12:05.030Z,8.75
2023-03-29T08:14:55.686Z,9.22
2023-03-29T08:17:47.155Z,9.29
2023-03-29T08:20:35.325Z,9.56
2023-03-29T08:23:23.818Z,9.30
2023-03-29T08:26:22.279Z,9.48
2023-03-29T08:29:10.346Z,9.80
2023-03-29T08:31:58.859Z,9.79
2023-03-29T08:34:46.909Z,10.00
2023-03-29T08:37:57.573Z,10.11
2023-03-29T08:40:44.824Z,10.52
2023-03-29T08:43:53.707Z,10.46
2023-03-29T08:47:13.265Z,10.98
2023-03-29T08:50:02.804Z,11.48
2023-03-29T08:53:05.340Z,11.52
2023-03-29T08:56:16.309Z,11.60
2023-03-29T08:59:29.444Z,11.76
2023-03-29T09:02:20.897Z,11.73
2023-03-29T09:05:22.733Z,11.50
2023-03-29T09:08:27.786Z,11.51
2023-03-29T09:11:32.661Z,11.52
2023-03-29T09:14:35.254Z,11.81
2023-03-29T09:17:36.098Z,11.74
2023-03-29T09:20:44.219Z,11.77
2023-03-29T09:23:48.194Z,11.97
2023-03-29T09:26:52.873Z,12.19
2023-03-29T09:29:56.771Z,12.13
2023-03-29T09:33:01.995Z,12.30
2023-03-29T09:36:05.288Z,12.29
2023-03-29T09:38:55.733Z,11.84
2023-03-29T09:41:52.962Z,12.21
2023-03-29T09:44:43.860Z,12.37
2023-03-29T09:47:39.984Z,12.39
2023-03-29T09:50:35.567Z,12.33
2023-03-29T09:53:26.496Z,12.04
2023-03-29T09:56:24.405Z,12.66
2023-03-29T09:59:18.388Z,12.69
2023-03-29T10:02:09.727Z,12.80
2023-03-29T10:04:58.874Z,12.78
2023-03-29T10:07:49.769Z,12.86
2023-03-29T10:10:37.824Z,12.99
2023-03-29T10:13:30.674Z,12.82
2023-03-29T10:16:21.364Z,12.89
2023-03-29T10:19:19.297Z,13.46
2023-03-29T10:22:08.035Z,13.39
2023-03-29T10:24:58.104Z,13.03
2023-03-29T10:27:46.796Z,13.21
2023-03-29T10:30:38.017Z,12.69
2023-03-29T10:33:28.885Z,12.41
2023-03-29T10:36:15.634Z,12.37
2023-03-29T10:39:06.162Z,12.77
2023-03-29T10:41:53.751Z,12.84
2023-03-29T10:44:41.225Z,12.98
2023-03-29T10:47:34.548Z,13.16
2023-03-29T10:50:21.224Z,13.36
2023-03-29T10:53:18.558Z,13.48
2023-03-29T10:56:16.597Z,13.70
2023-03-29T10:59:18.571Z,13.44
2023-03-29T11:02:32.233Z,13.19
2023-03-29T11:05:29.107Z,13.36
2023-03-29T11:08:31.864Z,13.96
2023-03-29T11:11:47.024Z,14.43
2023-03-29T11:14:47.818Z,14.75
2023-03-29T11:17:50.952Z,14.07
2023-03-29T11:20:43.215Z,13.61
2023-03-29T11:23:41.575Z,13.61
2023-03-29T11:26:36.834Z,13.58
2023-03-29T11:29:29.576Z,13.71
2023-03-29T11:32:27.910Z,13.48
2023-03-29T11:35:28.377Z,13.44
2023-03-29T11:38:24.214Z,13.24
2023-03-29T11:41:17.789Z,13.05
2023-03-29T11:44:11.531Z,13.19
2023-03-29T11:47:03.799Z,13.36
2023-03-29T11:49:54.678Z,13.30
2023-03-29T11:52:45.218Z,13.20
2023-03-29T11:55:36.699Z,13.27
2023-03-29T11:58:31.223Z,13.16
2023-03-29T12:01:23.407Z,13.29
2023-03-29T12:04:17.789Z,13.57
2023-03-29T12:07:13.774Z,13.48
2023-03-29T12:10:08.119Z,13.74
2023-03-29T12:13:02.051Z,14.13
2023-03-29T12:15:53.877Z,13.86
2023-03-29T12:18:43.184Z,13.81
2023-03-29T12:21:31.783Z,13.86
2023-03-29T12:24:21.765Z,14.00
2023-03-29T12:27:22.203Z,14.09
2023-03-29T12:30:31.154Z,14.29
2023-03-29T12:33:52.694Z,14.41
2023-03-29T12:37:32.225Z,14.57
2023-03-29T12:40:36.574Z,14.58
2023-03-29T12:43:43.621Z,14.36
2023-03-29T12:46:41.749Z,14.04
2023-03-29T12:49:32.938Z,14.37
2023-03-29T12:52:27.638Z,14.49
2023-03-29T12:55:25.266Z,14.31
2023-03-29T12:58:27.853Z,14.34
2023-03-29T13:01:26.596Z,14.52
2023-03-29T13:04:18.830Z,14.00
2023-03-29T13:07:07.198Z,14.02
2023-03-29T13:09:55.533Z,14.28
2023-03-29T13:12:44.769Z,13.98
2023-03-29T13:15:34.873Z,13.86
2023-03-29T13:18:37.947Z,14.25
2023-03-29T13:21:36.441Z,14.31
2023-03-29T13:24:40.277Z,14.63
2023-03-29T13:27:37.333Z,14.34
2023-03-29T13:30:33.193Z,14.69
2023-03-29T13:33:46.621Z,14.74
2023-03-29T13:36:47.081Z,14.58
2023-03-29T13:39:37.535Z,14.42
2023-03-29T13:42:27.888Z,14.42
2023-03-29T13:45:17.345Z,14.09
2023-03-29T13:48:06.585Z,14.13
2023-03-29T13:50:56.646Z,14.09
2023-03-29T13:53:50.744Z,14.13
2023-03-29T13:56:43.369Z,13.95
2023-03-29T13:59:37.868Z,14.19
2023-03-29T14:02:33.761Z,13.75
2023-03-29T14:05:24.674Z,13.82
2023-03-29T14:08:17.374Z,13.85
2023-03-29T14:11:08.138Z,13.57
2023-03-29T14:13:55.925Z,13.58
2023-03-29T14:16:42.979Z,13.44
2023-03-29T14:19:32.652Z,13.40
2023-03-29T14:22:22.285Z,13.54
2023-03-29T14:25:16.048Z,13.75
2023-03-29T14:28:14.212Z,13.80
2023-03-29T14:31:01.167Z,13.82
2023-03-29T14:33:53.475Z,14.11
2023-03-29T14:36:40.658Z,13.91
2023-03-29T14:39:27.578Z,13.90
2023-03-29T14:42:20.890Z,13.99
2023-03-29T14:45:14.436Z,13.62
2023-03-29T14:48:01.742Z,13.37
2023-03-29T14:50:49.148Z,13.56
2023-03-29T14:53:38.136Z,13.25
2023-03-29T14:56:26.469Z,13.65
2023-03-29T14:59:25.974Z,13.62
2023-03-29T15:02:29.149Z,13.50
2023-03-29T15:05:25.762Z,13.37
2023-03-29T15:08:16.692Z,13.41
2023-03-29T15:11:04.384Z,13.51
2023-03-29T15:13:56.915Z,13.47
2023-03-29T15:16:47.517Z,13.71
2023-03-29T15:19:37.401Z,13.60
2023-03-29T15:22:24.157Z,13.63
2023-03-29T15:25:16.572Z,13.58
2023-03-29T15:28:03.132Z,13.83
2023-03-29T15:31:04.759Z,13.98
2023-03-29T15:34:05.732Z,14.18
2023-03-29T15:36:57.400Z,13.85
2023-03-29T15:39:45.388Z,13.45
2023-03-29T15:42:32.119Z,13.77
2023-03-29T15:45:20.083Z,13.80
2023-03-29T15:48:15.630Z,13.95
2023-03-29T15:51:05.747Z,13.78
2023-03-29T15:53:54.839Z,13.67
2023-03-29T15:56:49.045Z,13.67
2023-03-29T15:59:36.548Z,13.66
2023-03-29T16:02:25.596Z,13.84
2023-03-29T16:05:13.449Z,13.65
2023-03-29T16:08:00.039Z,13.67
2023-03-29T16:10:49.219Z,13.34
2023-03-29T16:13:36.557Z,13.44
2023-03-29T16:16:26.317Z,13.23
2023-03-29T16:19:13.419Z,13.36
2023-03-29T16:22:01.782Z,13.21
2023-03-29T16:24:48.338Z,13.14
2023-03-29T16:27:36.783Z,12.96
2023-03-29T16:30:24.956Z,13.14
2023-03-29T16:33:12.439Z,12.97
2023-03-29T16:35:58.956Z,13.14
2023-03-29T16:38:46.093Z,13.13
2023-03-29T16:41:33.328Z,13.10
2023-03-29T16:44:24.745Z,13.04
2023-03-29T16:47:12.220Z,13.13
2023-03-29T16:49:58.814Z,13.11
2023-03-29T16:52:47.982Z,13.05
2023-03-29T16:55:34.795Z,13.05
2023-03-29T16:58:21.363Z,13.12
2023-03-29T17:01:10.999Z,13.06
2023-03-29T17:03:57.633Z,13.09
2023-03-29T17:06:44.386Z,12.94
2023-03-29T17:09:31.251Z,12.82
2023-03-29T17:12:19.249Z,12.90
2023-03-29T17:15:07.686Z,12.78
2023-03-29T17:17:55.825Z,12.83
2023-03-29T17:20:42.562Z,12.73
2023-03-29T17:23:29.401Z,12.59
2023-03-29T17:26:16.162Z,12.53
2023-03-29T17:29:03.139Z,12.50
2023-03-29T17:31:50.318Z,12.48
2023-03-29T17:34:38.980Z,12.44
2023-03-29T17:37:26.314Z,12.47
2023-03-29T17:40:14.995Z,12.47
2023-03-29T17:43:02.574Z,12.42
2023-03-29T17:45:52.252Z,12.35
2023-03-29T17:48:39.311Z,12.31
2023-03-29T17:51:28.197Z,12.21
2023-03-29T17:54:14.881Z,12.12
2023-03-29T17:57:01.555Z,12.26
2023-03-29T17:59:48.446Z,12.31
2023-03-29T18:02:42.980Z,12.19
2023-03-29T18:05:30.021Z,12.22
2023-03-29T18:08:18.181Z,12.17
2023-03-29T18:11:08.795Z,12.22
2023-03-29T18:13:56.292Z,12.14
2023-03-29T18:16:42.786Z,12.07
2023-03-29T18:19:29.814Z,12.03
2023-03-29T18:22:17.815Z,11.99
2023-03-29T18:25:07.246Z,12.18
2023-03-29T18:27:53.985Z,12.16
2023-03-29T18:30:40.653Z,12.14
2023-03-29T18:33:28.005Z,12.20
2023-03-29T18:36:15.347Z,12.34
2023-03-29T18:39:05.917Z,12.30
2023-03-29T18:41:54.414Z,12.40
2023-03-29T18:44:42.474Z,12.40
2023-03-29T18:47:29.241Z,12.44
2023-03-29T18:50:15.917Z,12.37
2023-03-29T18:53:02.683Z,12.43
2023-03-29T18:55:49.559Z,12.52
2023-03-29T18:58:37.940Z,12.48
2023-03-29T19:01:24.426Z,12.46
2023-03-29T19:04:11.178Z,12.37
2023-03-29T19:06:59.799Z,12.41
2023-03-29T19:09:46.550Z,12.48
2023-03-29T19:12:33.911Z,12.53
2023-03-29T19:15:22.221Z,12.41
2023-03-29T19:18:09.464Z,12.44
2023-03-29T19:20:56.308Z,12.47
2023-03-29T19:23:43.008Z,12.41
2023-03-29T19:26:29.676Z,12.38
2023-03-29T19:29:16.367Z,12.24
2023-03-29T19:32:06.808Z,12.19
2023-03-29T19:34:53.300Z,12.27
2023-03-29T19:37:40.156Z,12.28
2023-03-29T19:40:27.525Z,12.28
2023-03-29T19:43:16.674Z,12.23
2023-03-29T19:46:08.004Z,12.24
2023-03-29T19:48:56.722Z,12.32
2023-03-29T19:51:43.781Z,12.18
2023-03-29T19:54:30.819Z,12.07
2023-03-29T19:57:17.689Z,11.79
2023-03-29T20:00:08.067Z,11.89
2023-03-29T20:02:59.900Z,11.85
2023-03-29T20:05:48.151Z,11.80
2023-03-29T20:08:38.828Z,11.76
2023-03-29T20:11:26.073Z,11.74
2023-03-29T20:14:12.862Z,11.56
2023-03-29T20:16:59.676Z,11.63
2023-03-29T20:19:46.610Z,11.64
2023-03-29T20:22:34.496Z,11.53
2023-03-29T20:25:22.899Z,11.50
2023-03-29T20:28:10.023Z,11.60
2023-03-29T20:30:57.005Z,11.72
2023-03-29T20:33:44.561Z,11.75
2023-03-29T20:36:34.416Z,11.64
2023-03-29T20:39:25.583Z,11.69
2023-03-29T20:42:14.152Z,11.58
2023-03-29T20:45:01.432Z,11.66
2023-03-29T20:47:50.621Z,11.60
2023-03-29T20:50:39.124Z,11.63
2023-03-29T20:53:34.257Z,11.80
2023-03-29T20:56:26.684Z,11.71
2023-03-29T20:59:13.377Z,11.68
2023-03-29T21:02:00.738Z,11.65
2023-03-29T21:04:50.768Z,11.62
2023-03-29T21:07:37.591Z,11.65
2023-03-29T21:10:25.686Z,11.74
2023-03-29T21:13:13.610Z,11.76
2023-03-29T21:16:01.010Z,11.87
2023-03-29T21:18:49.997Z,11.81
2023-03-29T21:21:37.109Z,11.68
2023-03-29T21:24:23.676Z,11.77
2023-03-29T21:27:10.430Z,11.75
2023-03-29T21:29:58.499Z,11.67
2023-03-29T21:32:45.417Z,11.64
2023-03-29T21:35:33.419Z,11.75
2023-03-29T21:38:20.100Z,11.90
2023-03-29T21:41:10.621Z,11.81
2023-03-29T21:43:57.319Z,11.79
2023-03-29T21:46:45.890Z,11.81
2023-03-29T21:49:32.580Z,11.64
2023-03-29T21:52:19.248Z,11.68
2023-03-29T21:55:06.385Z,11.66
2023-03-29T21:57:53.979Z,11.72
2023-03-29T22:00:40.422Z,11.61
2023-03-29T22:03:28.477Z,11.69
2023-03-29T22:06:16.444Z,11.62
2023-03-29T22:09:03.178Z,11.62
2023-03-29T22:11:50.790Z,11.59
2023-03-29T22:14:37.855Z,11.65
2023-03-29T22:17:26.799Z,11.74
2023-03-29T22:20:15.721Z,11.70
2023-03-29T22:23:06.089Z,11.74
2023-03-29T22:25:52.718Z,11.63
2023-03-29T22:28:48.253Z,11.71
2023-03-29T22:31:38.770Z,11.32
2023-03-29T22:34:26.663Z,11.67
2023-03-29T22:37:14.878Z,11.66
2023-03-29T22:40:02.826Z,11.58
2023-03-29T22:42:51.144Z,11.56
2023-03-29T22:45:37.964Z,11.58
2023-03-29T22:48:24.873Z,11.56
2023-03-29T22:51:11.946Z,11.75
2023-03-29T22:53:59.920Z,11.69
2023-03-29T22:56:46.820Z,11.62
2023-03-29T22:59:47.697Z,11.64
2023-03-29T23:02:38.326Z,11.68
2023-03-29T23:05:25.635Z,11.60
2023-03-29T23:08:12.514Z,11.56
2023-03-29T23:11:01.499Z,11.56
2023-03-29T23:13:49.046Z,11.63
2023-03-29T23:16:35.483Z,11.56
2023-03-29T23:19:22.430Z,11.49
2023-03-29T23:22:08.956Z,11.48
2023-03-29T23:24:55.731Z,11.57
2023-03-29T23:27:44.082Z,11.56
2023-03-29T23:30:31.010Z,11.49
2023-03-29T23:33:17.636Z,11.55
2023-03-29T23:36:06.812Z,11.37
2023-03-29T23:38:53.616Z,11.62
2023-03-29T23:41:40.338Z,11.59
2023-03-29T23:44:28.544Z,11.75
2023-03-29T23:47:15.754Z,11.71
2023-03-29T23:50:03.195Z,11.90
2023-03-29T23:52:51.720Z,11.69
2023-03-29T23:55:38.518Z,11.73
2023-03-29T23:58:25.502Z,11.72
